createdAt,value
2022-09-21T00:00:32.877Z,8.16
2022-09-21T00:05:41.026Z,8.25
2022-09-21T00:10:48.542Z,8.26
2022-09-21T00:15:56.736Z,8.2
2022-09-21T00:21:04.889Z,8.14
2022-09-21T00:26:12.841Z,7.96
2022-09-21T00:31:20.575Z,7.9
2022-09-21T00:36:28.529Z,7.69
2022-09-21T00:41:36.307Z,7.69
2022-09-21T00:46:59.504Z,7.84
2022-09-21T00:52:06.931Z,7.78
2022-09-21T00:57:14.365Z,7.69
2022-09-21T01:02:22.334Z,7.68
2022-09-21T01:07:29.594Z,7.76
2022-09-21T01:12:39.162Z,7.6
2022-09-21T01:19:36.240Z,7.48
2022-09-21T01:24:43.961Z,7.48
2022-09-21T01:29:51.705Z,7.46
2022-09-21T01:34:59.170Z,7.5
2022-09-21T01:40:07.482Z,7.43
2022-09-21T01:45:15.852Z,7.38
2022-09-21T01:50:23.657Z,7.22
2022-09-21T01:55:31.447Z,7.1
2022-09-21T02:00:39.296Z,7.0
2022-09-21T02:05:47.166Z,6.88
2022-09-21T02:10:55.942Z,6.76
2022-09-21T02:16:05.886Z,6.71
2022-09-21T02:21:13.407Z,6.72
2022-09-21T02:26:21.565Z,6.7
2022-09-21T02:31:29.528Z,6.69
2022-09-21T02:36:37.899Z,6.75
2022-09-21T02:41:45.264Z,6.72
2022-09-21T02:46:53.414Z,6.8
2022-09-21T02:52:00.935Z,6.75
2022-09-21T02:57:08.129Z,6.7
2022-09-21T03:02:15.998Z,6.7
2022-09-21T03:07:24.083Z,6.67
2022-09-21T03:12:32.849Z,6.8
2022-09-21T03:17:40.877Z,6.78
2022-09-21T03:22:48.546Z,6.74
2022-09-21T03:27:55.734Z,6.64
2022-09-21T03:33:03.587Z,6.6
2022-09-21T03:38:11.387Z,6.62
2022-09-21T03:43:19.227Z,6.64
2022-09-21T03:48:27.137Z,6.66
2022-09-21T03:53:34.745Z,6.65
2022-09-21T03:58:42.099Z,6.66
2022-09-21T04:03:49.372Z,6.7
2022-09-21T04:08:56.588Z,6.74
2022-09-21T04:14:04.435Z,6.83
2022-09-21T04:19:12.697Z,6.88
2022-09-21T04:24:20.154Z,6.86
2022-09-21T04:29:28.016Z,6.8
2022-09-21T04:34:36.286Z,6.67
2022-09-21T04:39:44.906Z,6.52
2022-09-21T04:44:52.093Z,6.42
2022-09-21T04:49:58.652Z,6.3
2022-09-21T04:55:06.747Z,6.26
2022-09-21T05:00:13.958Z,6.21
2022-09-21T05:05:22.059Z,6.26
2022-09-21T05:10:30.520Z,6.53
2022-09-21T05:15:38.092Z,6.64
2022-09-21T05:20:45.057Z,6.61
2022-09-21T05:25:52.881Z,6.57
2022-09-21T05:31:01.234Z,6.57
2022-09-21T05:36:09.612Z,6.58
2022-09-21T05:41:17.928Z,6.66
2022-09-21T05:46:25.589Z,6.71
2022-09-21T05:51:33.426Z,6.83
2022-09-21T05:56:42.402Z,7.23
2022-09-21T06:01:49.868Z,7.96
2022-09-21T06:06:58.698Z,8.6
2022-09-21T06:12:06.458Z,8.6
2022-09-21T06:17:17.943Z,9.31
2022-09-21T06:22:24.894Z,9.76
2022-09-21T06:27:33.660Z,9.84
2022-09-21T06:32:40.638Z,9.85
2022-09-21T06:37:49.907Z,10.09
2022-09-21T06:42:57.251Z,10.48
2022-09-21T06:48:05.508Z,11.46
2022-09-21T06:53:13.219Z,11.88
2022-09-21T06:58:22.198Z,11.96
2022-09-21T07:03:28.941Z,12.22
2022-09-21T07:08:36.165Z,12.18
2022-09-21T07:13:45.533Z,11.92
2022-09-21T07:18:53.648Z,11.28
2022-09-21T07:29:12.511Z,11.13
2022-09-21T07:34:20.190Z,11.69
2022-09-21T07:39:28.545Z,12.74
2022-09-21T07:44:36.892Z,13.78
2022-09-21T07:49:44.460Z,13.56
2022-09-21T07:54:51.784Z,13.13
2022-09-21T07:59:58.928Z,13.48
2022-09-21T08:05:06.185Z,13.8
2022-09-21T08:10:14.658Z,13.75
2022-09-21T08:15:23.512Z,13.86
2022-09-21T08:20:31.124Z,13.67
2022-09-21T08:25:40.309Z,13.44
2022-09-21T08:30:47.432Z,13.11
2022-09-21T08:35:55.149Z,13.06
2022-09-21T08:41:03.483Z,13.3
2022-09-21T08:46:12.547Z,13.92
2022-09-21T08:51:20.899Z,13.8
2022-09-21T08:56:28.777Z,14.29
2022-09-21T09:01:36.457Z,14.32
2022-09-21T09:06:44.106Z,14.07
2022-09-21T09:11:52.366Z,13.74
2022-09-21T09:16:59.482Z,13.34
2022-09-21T09:22:06.811Z,13.52
2022-09-21T09:27:13.543Z,14.16
2022-09-21T09:32:21.320Z,14.39
2022-09-21T09:37:28.732Z,14.55
2022-09-21T09:42:36.440Z,14.24
2022-09-21T09:47:44.304Z,14.3
2022-09-21T09:52:52.066Z,14.22
2022-09-21T09:57:59.410Z,14.05
2022-09-21T10:03:05.909Z,14.08
2022-09-21T10:08:13.656Z,14.0
2022-09-21T10:13:22.588Z,14.17
2022-09-21T10:18:30.005Z,14.35
2022-09-21T10:23:37.889Z,14.12
2022-09-21T10:28:45.697Z,14.21
2022-09-21T10:33:54.152Z,15.96
2022-09-21T10:39:02.085Z,17.3
2022-09-21T10:44:08.875Z,17.56
2022-09-21T10:49:17.425Z,25.14
2022-09-21T10:54:26.562Z,23.88
2022-09-21T10:59:33.965Z,20.35
2022-09-21T11:04:41.876Z,17.56
2022-09-21T11:09:49.892Z,16.59
2022-09-21T11:14:57.430Z,17.4
2022-09-21T11:20:05.422Z,18.66
2022-09-21T11:25:14.696Z,18.7
2022-09-21T11:30:21.954Z,18.22
2022-09-21T11:35:30.185Z,17.94
2022-09-21T11:41:00.150Z,18.65
2022-09-21T11:46:07.959Z,20.83
2022-09-21T11:51:14.852Z,21.2
2022-09-21T11:56:22.397Z,20.54
2022-09-21T12:01:30.911Z,20.01
2022-09-21T12:06:38.564Z,19.16
2022-09-21T12:11:46.336Z,19.29
2022-09-21T12:16:54.063Z,19.62
2022-09-21T12:22:01.311Z,19.97
2022-09-21T12:27:09.117Z,20.34
2022-09-21T12:32:17.918Z,19.6
2022-09-21T12:37:25.374Z,18.76
2022-09-21T12:43:12.919Z,18.15
2022-09-21T12:48:21.395Z,17.79
2022-09-21T12:53:29.801Z,18.46
2022-09-21T12:58:38.779Z,20.04
2022-09-21T13:03:47.393Z,20.26
2022-09-21T13:09:02.789Z,20.02
2022-09-21T13:14:10.785Z,20.08
2022-09-21T13:19:17.532Z,19.62
2022-09-21T13:24:25.003Z,19.28
2022-09-21T13:29:33.009Z,18.76
2022-09-21T13:34:40.780Z,17.99
2022-09-21T13:39:48.107Z,17.75
2022-09-21T13:44:56.461Z,17.54
2022-09-21T13:50:03.133Z,17.06
2022-09-21T13:55:10.381Z,16.78
2022-09-21T14:00:18.531Z,17.46
2022-09-21T14:05:28.501Z,17.86
2022-09-21T14:10:36.346Z,18.08
2022-09-21T14:15:43.978Z,18.56
2022-09-21T14:20:52.669Z,18.29
2022-09-21T14:25:59.956Z,17.36
2022-09-21T14:31:07.128Z,16.8
2022-09-21T14:36:15.232Z,16.66
2022-09-21T14:41:23.551Z,16.65
2022-09-21T14:46:34.181Z,17.11
2022-09-21T14:51:42.902Z,17.41
2022-09-21T14:56:50.745Z,17.2
2022-09-21T15:02:04.037Z,16.86
2022-09-21T15:07:11.675Z,16.15
2022-09-21T15:12:19.213Z,15.84
2022-09-21T15:17:27.418Z,15.57
2022-09-21T15:22:35.579Z,15.07
2022-09-21T15:27:43.032Z,14.83
2022-09-21T15:32:50.380Z,14.82
2022-09-21T15:37:58.041Z,14.58
2022-09-21T15:43:05.908Z,14.17
2022-09-21T15:48:13.836Z,13.98
2022-09-21T15:53:21.469Z,13.58
2022-09-21T15:58:28.740Z,13.13
2022-09-21T16:03:36.320Z,12.66
2022-09-21T16:08:44.395Z,12.15
2022-09-21T16:13:52.298Z,11.76
2022-09-21T16:19:00.066Z,11.28
2022-09-21T16:24:07.361Z,10.86
2022-09-21T16:29:15.148Z,10.42
2022-09-21T16:34:22.988Z,10.28
2022-09-21T16:39:30.197Z,10.12
2022-09-21T16:44:37.376Z,9.96
2022-09-21T16:49:45.224Z,9.64
2022-09-21T16:54:52.274Z,9.64
2022-09-21T16:59:59.016Z,9.39
2022-09-21T17:05:07.682Z,9.18
2022-09-21T17:10:16.457Z,8.8
2022-09-21T17:15:24.319Z,8.62
2022-09-21T17:20:31.679Z,8.62
2022-09-21T17:25:39.597Z,8.56
2022-09-21T17:30:46.665Z,8.81
2022-09-21T17:35:55.542Z,8.9
2022-09-21T17:41:03.563Z,8.97
2022-09-21T17:46:10.830Z,9.01
2022-09-21T17:51:18.523Z,9.06
2022-09-21T17:56:26.551Z,9.08
2022-09-21T18:01:34.661Z,8.94
2022-09-21T18:06:42.185Z,8.92
2022-09-21T18:11:50.077Z,8.92
2022-09-21T18:16:57.895Z,8.86
2022-09-21T18:22:06.241Z,8.77
2022-09-21T18:27:13.996Z,8.44
2022-09-21T18:32:20.805Z,7.98
2022-09-21T18:37:27.953Z,7.52
2022-09-21T18:42:37.360Z,7.32
2022-09-21T18:47:44.309Z,7.28
2022-09-21T18:52:50.406Z,6.98
2022-09-21T18:57:58.774Z,6.98
2022-09-21T19:03:07.082Z,7.06
2022-09-21T19:08:15.884Z,7.16
2022-09-21T19:13:23.461Z,7.15
2022-09-21T19:18:30.661Z,7.19
2022-09-21T19:23:37.848Z,7.33
2022-09-21T19:28:45.111Z,7.65
2022-09-21T19:33:52.265Z,7.62
2022-09-21T19:38:59.567Z,7.62
2022-09-21T19:44:07.872Z,7.56
2022-09-21T19:49:16.154Z,7.34
2022-09-21T19:54:24.639Z,7.23
2022-09-21T19:59:33.224Z,7.2
2022-09-21T20:04:41.163Z,7.07
2022-09-21T20:11:20.843Z,6.98
2022-09-21T20:16:27.440Z,7.01
2022-09-21T20:21:35.765Z,7.0
2022-09-21T20:26:44.152Z,6.88
2022-09-21T20:31:51.966Z,6.86
2022-09-21T20:36:59.711Z,6.8
2022-09-21T20:42:07.549Z,6.66
2022-09-21T20:47:35.616Z,6.54
2022-09-21T20:52:42.471Z,6.46
2022-09-21T20:57:50.347Z,6.54
2022-09-21T21:02:57.943Z,6.6
2022-09-21T21:08:05.982Z,6.62
2022-09-21T21:13:13.445Z,6.66
2022-09-21T21:18:27.302Z,6.67
2022-09-21T21:23:35.308Z,6.4
2022-09-21T21:28:43.146Z,6.44
2022-09-21T21:33:50.991Z,6.48
2022-09-21T21:38:58.267Z,6.46
2022-09-21T21:44:06.136Z,6.51
2022-09-21T21:49:13.673Z,6.73
2022-09-21T21:54:21.699Z,6.9
2022-09-21T21:59:30.765Z,7.04
2022-09-21T22:04:38.878Z,7.14
2022-09-21T22:09:46.493Z,7.3
2022-09-21T22:14:54.870Z,7.29
2022-09-21T22:20:03.372Z,7.04
2022-09-21T22:25:10.925Z,6.82
2022-09-21T22:30:18.711Z,6.65
2022-09-21T22:35:26.335Z,6.67
2022-09-21T22:40:33.977Z,6.76
2022-09-21T22:45:40.738Z,6.82
2022-09-21T22:50:48.496Z,6.7
2022-09-21T22:55:57.092Z,6.57
2022-09-21T23:01:04.928Z,6.46
2022-09-21T23:06:18.751Z,6.42
2022-09-21T23:11:26.321Z,6.2
2022-09-21T23:16:33.518Z,5.92
2022-09-21T23:21:41.365Z,5.8
2022-09-21T23:26:48.604Z,5.88
2022-09-21T23:31:55.129Z,5.72
2022-09-21T23:37:02.331Z,5.8
2022-09-21T23:42:08.881Z,6.02
2022-09-21T23:47:16.113Z,6.28
2022-09-21T23:52:24.813Z,6.4
2022-09-21T23:57:33.062Z,6.54
